sensor_id;sensor_type;location;lat;lon;timestamp;pressure;altitude;pressure_sealevel;temperature;humidity
59545;BME280;45368;55.002;-1.592;2022-08-19T00:01:00;100103.05;;;17.99;48.03
59545;BME280;45368;55.002;-1.592;2022-08-19T00:03:28;100106.29;;;17.97;47.61
59545;BME280;45368;55.002;-1.592;2022-08-19T00:05:55;100104.37;;;17.64;49.36
59545;BME280;45368;55.002;-1.592;2022-08-19T00:08:23;100102.51;;;17.60;49.04
59545;BME280;45368;55.002;-1.592;2022-08-19T00:10:51;100108.61;;;18.07;47.98
59545;BME280;45368;55.002;-1.592;2022-08-19T00:13:18;100111.17;;;18.13;47.34
59545;BME280;45368;55.002;-1.592;2022-08-19T00:15:45;100110.81;;;18.20;47.35
59545;BME280;45368;55.002;-1.592;2022-08-19T00:18:12;100110.68;;;18.50;46.67
59545;BME280;45368;55.002;-1.592;2022-08-19T00:20:39;100103.56;;;18.78;45.96
59545;BME280;45368;55.002;-1.592;2022-08-19T00:23:07;100107.16;;;17.83;47.42
59545;BME280;45368;55.002;-1.592;2022-08-19T00:25:34;100101.83;;;19.19;44.67
59545;BME280;45368;55.002;-1.592;2022-08-19T00:28:02;100095.68;;;18.84;44.94
59545;BME280;45368;55.002;-1.592;2022-08-19T00:30:29;100093.41;;;18.94;44.68
59545;BME280;45368;55.002;-1.592;2022-08-19T00:32:57;100094.02;;;18.40;45.48
59545;BME280;45368;55.002;-1.592;2022-08-19T00:35:25;100089.67;;;19.29;44.75
59545;BME280;45368;55.002;-1.592;2022-08-19T00:37:54;100089.46;;;19.03;44.98
59545;BME280;45368;55.002;-1.592;2022-08-19T00:40:22;100092.36;;;18.89;44.96
59545;BME280;45368;55.002;-1.592;2022-08-19T00:42:49;100090.86;;;18.41;46.12
59545;BME280;45368;55.002;-1.592;2022-08-19T00:45:19;100094.57;;;18.83;45.69
59545;BME280;45368;55.002;-1.592;2022-08-19T00:47:46;100099.05;;;18.19;45.94
59545;BME280;45368;55.002;-1.592;2022-08-19T00:50:16;100098.81;;;18.19;46.17
59545;BME280;45368;55.002;-1.592;2022-08-19T00:52:46;100098.78;;;18.54;45.37
59545;BME280;45368;55.002;-1.592;2022-08-19T00:55:19;100099.29;;;18.42;45.59
59545;BME280;45368;55.002;-1.592;2022-08-19T00:57:51;100100.00;;;18.60;45.56
59545;BME280;45368;55.002;-1.592;2022-08-19T01:00:22;100094.83;;;19.24;44.94
59545;BME280;45368;55.002;-1.592;2022-08-19T01:02:50;100096.44;;;18.43;46.50
59545;BME280;45368;55.002;-1.592;2022-08-19T01:05:22;100098.77;;;18.92;45.32
59545;BME280;45368;55.002;-1.592;2022-08-19T01:07:50;100101.60;;;19.77;44.61
59545;BME280;45368;55.002;-1.592;2022-08-19T01:10:23;100104.43;;;19.77;44.30
59545;BME280;45368;55.002;-1.592;2022-08-19T01:12:53;100105.97;;;19.22;45.13
59545;BME280;45368;55.002;-1.592;2022-08-19T01:15:26;100111.35;;;19.46;44.64
59545;BME280;45368;55.002;-1.592;2022-08-19T01:17:55;100117.69;;;19.27;44.81
59545;BME280;45368;55.002;-1.592;2022-08-19T01:20:24;100123.31;;;19.57;44.39
59545;BME280;45368;55.002;-1.592;2022-08-19T01:22:54;100119.83;;;19.06;44.56
59545;BME280;45368;55.002;-1.592;2022-08-19T01:25:25;100118.14;;;19.68;44.09
59545;BME280;45368;55.002;-1.592;2022-08-19T01:27:54;100124.77;;;19.53;43.95
59545;BME280;45368;55.002;-1.592;2022-08-19T01:30:23;100128.29;;;19.64;44.08
59545;BME280;45368;55.002;-1.592;2022-08-19T01:32:51;100137.19;;;18.13;46.22
59545;BME280;45368;55.002;-1.592;2022-08-19T01:35:20;100143.37;;;19.13;45.05
59545;BME280;45368;55.002;-1.592;2022-08-19T01:37:50;100149.99;;;18.33;46.27
59545;BME280;45368;55.002;-1.592;2022-08-19T01:40:21;100149.01;;;18.41;46.42
59545;BME280;45368;55.002;-1.592;2022-08-19T01:42:50;100147.31;;;19.45;45.10
59545;BME280;45368;55.002;-1.592;2022-08-19T01:45:18;100141.94;;;19.68;44.09
59545;BME280;45368;55.002;-1.592;2022-08-19T01:47:45;100141.11;;;19.50;44.06
59545;BME280;45368;55.002;-1.592;2022-08-19T01:50:13;100142.69;;;19.37;44.25
59545;BME280;45368;55.002;-1.592;2022-08-19T01:52:43;100148.36;;;19.60;43.74
59545;BME280;45368;55.002;-1.592;2022-08-19T01:55:13;100154.93;;;19.28;44.08
59545;BME280;45368;55.002;-1.592;2022-08-19T01:57:44;100161.08;;;18.85;44.70
59545;BME280;45368;55.002;-1.592;2022-08-19T02:00:15;100157.11;;;18.70;44.95
59545;BME280;45368;55.002;-1.592;2022-08-19T02:02:43;100155.68;;;19.40;43.61
59545;BME280;45368;55.002;-1.592;2022-08-19T02:05:11;100158.80;;;19.27;44.33
59545;BME280;45368;55.002;-1.592;2022-08-19T02:07:40;100159.08;;;19.10;44.51
59545;BME280;45368;55.002;-1.592;2022-08-19T02:10:12;100156.62;;;17.95;46.58
59545;BME280;45368;55.002;-1.592;2022-08-19T02:12:40;100160.21;;;17.78;46.96
59545;BME280;45368;55.002;-1.592;2022-08-19T02:15:08;100162.70;;;17.97;46.32
59545;BME280;45368;55.002;-1.592;2022-08-19T02:17:36;100156.52;;;17.65;46.67
59545;BME280;45368;55.002;-1.592;2022-08-19T02:20:04;100155.94;;;17.65;46.78
59545;BME280;45368;55.002;-1.592;2022-08-19T02:22:33;100155.42;;;18.41;45.57
59545;BME280;45368;55.002;-1.592;2022-08-19T02:25:00;100158.81;;;18.46;45.24
59545;BME280;45368;55.002;-1.592;2022-08-19T02:27:27;100162.97;;;18.51;44.90
59545;BME280;45368;55.002;-1.592;2022-08-19T02:29:55;100166.05;;;18.11;45.41
59545;BME280;45368;55.002;-1.592;2022-08-19T02:32:22;100176.91;;;16.81;47.94
59545;BME280;45368;55.002;-1.592;2022-08-19T02:34:49;100181.02;;;18.23;45.94
59545;BME280;45368;55.002;-1.592;2022-08-19T02:37:16;100179.60;;;18.60;45.28
59545;BME280;45368;55.002;-1.592;2022-08-19T02:39:43;100186.25;;;18.00;45.39
59545;BME280;45368;55.002;-1.592;2022-08-19T02:42:11;100190.42;;;18.08;45.48
59545;BME280;45368;55.002;-1.592;2022-08-19T02:44:39;100194.19;;;17.73;45.60
59545;BME280;45368;55.002;-1.592;2022-08-19T02:47:06;100191.37;;;18.47;44.92
59545;BME280;45368;55.002;-1.592;2022-08-19T02:49:33;100195.65;;;18.27;45.16
59545;BME280;45368;55.002;-1.592;2022-08-19T02:52:01;100193.83;;;18.59;44.56
59545;BME280;45368;55.002;-1.592;2022-08-19T02:54:29;100197.64;;;18.01;44.74
59545;BME280;45368;55.002;-1.592;2022-08-19T02:56:56;100194.22;;;18.33;44.27
59545;BME280;45368;55.002;-1.592;2022-08-19T02:59:23;100197.12;;;16.30;47.97
59545;BME280;45368;55.002;-1.592;2022-08-19T03:01:51;100198.86;;;16.64;47.46
59545;BME280;45368;55.002;-1.592;2022-08-19T03:04:19;100202.69;;;18.06;45.16
59545;BME280;45368;55.002;-1.592;2022-08-19T03:06:47;100204.49;;;18.42;44.08
59545;BME280;45368;55.002;-1.592;2022-08-19T03:09:16;100209.56;;;17.24;46.23
59545;BME280;45368;55.002;-1.592;2022-08-19T03:11:43;100206.92;;;17.56;45.60
59545;BME280;45368;55.002;-1.592;2022-08-19T03:14:12;100204.44;;;18.54;44.23
59545;BME280;45368;55.002;-1.592;2022-08-19T03:16:42;100209.64;;;16.93;45.74
59545;BME280;45368;55.002;-1.592;2022-08-19T03:19:10;100212.35;;;18.10;44.03
59545;BME280;45368;55.002;-1.592;2022-08-19T03:21:37;100211.15;;;18.71;43.70
59545;BME280;45368;55.002;-1.592;2022-08-19T03:24:07;100215.24;;;18.43;43.70
59545;BME280;45368;55.002;-1.592;2022-08-19T03:26:39;100219.52;;;18.23;43.90
59545;BME280;45368;55.002;-1.592;2022-08-19T03:29:06;100217.04;;;18.34;44.06
59545;BME280;45368;55.002;-1.592;2022-08-19T03:31:34;100216.32;;;17.66;44.38
59545;BME280;45368;55.002;-1.592;2022-08-19T03:34:02;100219.77;;;17.80;44.55
59545;BME280;45368;55.002;-1.592;2022-08-19T03:36:29;100220.48;;;18.17;44.21
59545;BME280;45368;55.002;-1.592;2022-08-19T03:39:00;100225.84;;;18.03;44.51
59545;BME280;45368;55.002;-1.592;2022-08-19T03:41:29;100223.52;;;18.20;44.32
59545;BME280;45368;55.002;-1.592;2022-08-19T03:43:57;100224.83;;;18.24;44.36
59545;BME280;45368;55.002;-1.592;2022-08-19T03:46:26;100225.90;;;18.49;43.83
59545;BME280;45368;55.002;-1.592;2022-08-19T03:48:56;100227.96;;;18.43;43.91
59545;BME280;45368;55.002;-1.592;2022-08-19T03:51:26;100230.15;;;17.86;44.51
59545;BME280;45368;55.002;-1.592;2022-08-19T03:53:54;100226.98;;;18.03;44.29
59545;BME280;45368;55.002;-1.592;2022-08-19T03:56:22;100224.13;;;17.77;44.80
59545;BME280;45368;55.002;-1.592;2022-08-19T03:58:49;100222.02;;;17.89;44.80
59545;BME280;45368;55.002;-1.592;2022-08-19T04:01:19;100221.27;;;18.04;44.52
59545;BME280;45368;55.002;-1.592;2022-08-19T04:03:47;100229.47;;;17.84;44.80
59545;BME280;45368;55.002;-1.592;2022-08-19T04:06:16;100236.95;;;17.84;44.86
59545;BME280;45368;55.002;-1.592;2022-08-19T04:08:45;100241.85;;;17.56;45.16
59545;BME280;45368;55.002;-1.592;2022-08-19T04:11:14;100242.76;;;17.51;45.51
59545;BME280;45368;55.002;-1.592;2022-08-19T04:13:43;100243.95;;;17.43;45.59
59545;BME280;45368;55.002;-1.592;2022-08-19T04:16:11;100246.51;;;17.62;45.47
59545;BME280;45368;55.002;-1.592;2022-08-19T04:18:39;100254.69;;;17.11;46.23
59545;BME280;45368;55.002;-1.592;2022-08-19T04:21:08;100256.02;;;16.08;48.32
59545;BME280;45368;55.002;-1.592;2022-08-19T04:23:36;100255.39;;;17.10;46.99
59545;BME280;45368;55.002;-1.592;2022-08-19T04:26:03;100255.38;;;17.15;45.96
59545;BME280;45368;55.002;-1.592;2022-08-19T04:28:29;100257.01;;;17.23;46.10
59545;BME280;45368;55.002;-1.592;2022-08-19T04:30:57;100257.69;;;17.75;44.97
59545;BME280;45368;55.002;-1.592;2022-08-19T04:33:25;100261.01;;;17.21;45.29
59545;BME280;45368;55.002;-1.592;2022-08-19T04:35:52;100266.29;;;16.50;46.70
59545;BME280;45368;55.002;-1.592;2022-08-19T04:38:22;100269.01;;;16.29;47.12
59545;BME280;45368;55.002;-1.592;2022-08-19T04:40:51;100270.70;;;16.57;46.46
59545;BME280;45368;55.002;-1.592;2022-08-19T04:43:18;100267.99;;;17.02;45.56
59545;BME280;45368;55.002;-1.592;2022-08-19T04:45:46;100275.58;;;16.78;47.05
59545;BME280;45368;55.002;-1.592;2022-08-19T04:48:13;100276.12;;;16.36;46.69
59545;BME280;45368;55.002;-1.592;2022-08-19T04:50:43;100276.34;;;17.02;45.79
59545;BME280;45368;55.002;-1.592;2022-08-19T04:53:10;100288.17;;;14.68;49.98
59545;BME280;45368;55.002;-1.592;2022-08-19T04:55:40;100290.07;;;15.31;49.24
59545;BME280;45368;55.002;-1.592;2022-08-19T04:58:07;100293.24;;;15.33;49.86
59545;BME280;45368;55.002;-1.592;2022-08-19T05:00:37;100298.00;;;14.85;50.50
59545;BME280;45368;55.002;-1.592;2022-08-19T05:03:04;100294.79;;;14.34;52.00
59545;BME280;45368;55.002;-1.592;2022-08-19T05:05:32;100302.21;;;14.15;52.08
59545;BME280;45368;55.002;-1.592;2022-08-19T05:07:59;100300.61;;;14.89;51.39
59545;BME280;45368;55.002;-1.592;2022-08-19T05:10:26;100304.27;;;14.13;52.32
59545;BME280;45368;55.002;-1.592;2022-08-19T05:12:52;100310.74;;;13.29;54.56
59545;BME280;45368;55.002;-1.592;2022-08-19T05:15:20;100312.41;;;13.55;55.31
59545;BME280;45368;55.002;-1.592;2022-08-19T05:17:47;100312.35;;;13.19;54.94
59545;BME280;45368;55.002;-1.592;2022-08-19T05:20:13;100315.94;;;13.17;55.53
59545;BME280;45368;55.002;-1.592;2022-08-19T05:22:41;100315.98;;;12.90;56.09
59545;BME280;45368;55.002;-1.592;2022-08-19T05:25:12;100312.19;;;13.02;55.66
59545;BME280;45368;55.002;-1.592;2022-08-19T05:27:40;100302.68;;;13.33;55.40
59545;BME280;45368;55.002;-1.592;2022-08-19T05:30:08;100305.31;;;13.69;55.46
59545;BME280;45368;55.002;-1.592;2022-08-19T05:32:36;100307.84;;;14.16;53.55
59545;BME280;45368;55.002;-1.592;2022-08-19T05:35:04;100307.09;;;13.90;53.78
59545;BME280;45368;55.002;-1.592;2022-08-19T05:37:32;100308.38;;;14.03;53.53
59545;BME280;45368;55.002;-1.592;2022-08-19T05:39:59;100307.79;;;14.58;52.58
59545;BME280;45368;55.002;-1.592;2022-08-19T05:42:26;100309.26;;;14.21;53.06
59545;BME280;45368;55.002;-1.592;2022-08-19T05:44:53;100314.59;;;13.56;54.21
59545;BME280;45368;55.002;-1.592;2022-08-19T05:47:21;100319.54;;;13.82;54.22
59545;BME280;45368;55.002;-1.592;2022-08-19T05:49:48;100317.36;;;13.57;53.92
59545;BME280;45368;55.002;-1.592;2022-08-19T05:52:16;100314.76;;;13.91;53.91
59545;BME280;45368;55.002;-1.592;2022-08-19T05:54:43;100313.76;;;14.11;53.21
59545;BME280;45368;55.002;-1.592;2022-08-19T05:57:10;100309.71;;;14.81;52.47
59545;BME280;45368;55.002;-1.592;2022-08-19T05:59:37;100309.39;;;15.25;51.28
59545;BME280;45368;55.002;-1.592;2022-08-19T06:02:05;100308.77;;;14.73;52.01
59545;BME280;45368;55.002;-1.592;2022-08-19T06:04:33;100313.95;;;14.17;52.99
59545;BME280;45368;55.002;-1.592;2022-08-19T06:07:00;100314.07;;;14.68;52.12
59545;BME280;45368;55.002;-1.592;2022-08-19T06:09:28;100313.42;;;14.78;52.09
59545;BME280;45368;55.002;-1.592;2022-08-19T06:11:57;100318.54;;;14.60;52.23
59545;BME280;45368;55.002;-1.592;2022-08-19T06:14:29;100318.81;;;14.48;52.44
59545;BME280;45368;55.002;-1.592;2022-08-19T06:16:57;100319.33;;;14.30;52.80
59545;BME280;45368;55.002;-1.592;2022-08-19T06:19:24;100316.77;;;14.48;51.86
59545;BME280;45368;55.002;-1.592;2022-08-19T06:21:52;100319.93;;;13.73;54.40
59545;BME280;45368;55.002;-1.592;2022-08-19T06:24:21;100315.11;;;14.14;52.96
59545;BME280;45368;55.002;-1.592;2022-08-19T06:26:51;100317.24;;;13.75;53.85
59545;BME280;45368;55.002;-1.592;2022-08-19T06:29:20;100314.03;;;13.63;53.39
59545;BME280;45368;55.002;-1.592;2022-08-19T06:31:51;100310.20;;;13.06;55.01
59545;BME280;45368;55.002;-1.592;2022-08-19T06:34:19;100308.63;;;13.91;52.97
59545;BME280;45368;55.002;-1.592;2022-08-19T06:36:50;100315.21;;;14.08;52.97
59545;BME280;45368;55.002;-1.592;2022-08-19T06:39:19;100320.38;;;13.96;52.26
59545;BME280;45368;55.002;-1.592;2022-08-19T06:41:48;100322.03;;;14.16;52.23
59545;BME280;45368;55.002;-1.592;2022-08-19T06:44:16;100319.71;;;14.50;51.30
59545;BME280;45368;55.002;-1.592;2022-08-19T06:46:43;100322.59;;;14.50;51.77
59545;BME280;45368;55.002;-1.592;2022-08-19T06:49:11;100322.69;;;15.03;50.19
59545;BME280;45368;55.002;-1.592;2022-08-19T06:51:39;100327.48;;;14.83;49.46
59545;BME280;45368;55.002;-1.592;2022-08-19T06:54:07;100327.87;;;15.40;48.90
59545;BME280;45368;55.002;-1.592;2022-08-19T06:56:34;100326.88;;;15.91;48.40
59545;BME280;45368;55.002;-1.592;2022-08-19T06:59:05;100332.40;;;16.04;47.92
59545;BME280;45368;55.002;-1.592;2022-08-19T07:01:35;100330.22;;;16.04;47.83
59545;BME280;45368;55.002;-1.592;2022-08-19T07:04:03;100335.66;;;15.22;49.21
59545;BME280;45368;55.002;-1.592;2022-08-19T07:06:30;100338.03;;;15.45;49.09
59545;BME280;45368;55.002;-1.592;2022-08-19T07:08:57;100340.11;;;16.65;47.37
59545;BME280;45368;55.002;-1.592;2022-08-19T07:11:25;100335.18;;;16.37;46.05
59545;BME280;45368;55.002;-1.592;2022-08-19T07:13:52;100329.67;;;17.03;44.89
59545;BME280;45368;55.002;-1.592;2022-08-19T07:16:20;100326.38;;;16.39;45.36
59545;BME280;45368;55.002;-1.592;2022-08-19T07:18:49;100325.15;;;16.28;45.92
59545;BME280;45368;55.002;-1.592;2022-08-19T07:21:19;100325.11;;;16.61;45.97
59545;BME280;45368;55.002;-1.592;2022-08-19T07:23:48;100324.41;;;16.04;46.91
59545;BME280;45368;55.002;-1.592;2022-08-19T07:26:20;100323.53;;;16.61;45.54
59545;BME280;45368;55.002;-1.592;2022-08-19T07:28:49;100325.46;;;16.48;46.11
59545;BME280;45368;55.002;-1.592;2022-08-19T07:31:17;100330.29;;;16.44;45.99
59545;BME280;45368;55.002;-1.592;2022-08-19T07:33:46;100328.27;;;16.79;45.24
59545;BME280;45368;55.002;-1.592;2022-08-19T07:36:16;100333.13;;;17.46;43.70
59545;BME280;45368;55.002;-1.592;2022-08-19T07:38:46;100333.38;;;18.09;42.13
59545;BME280;45368;55.002;-1.592;2022-08-19T07:41:18;100330.60;;;18.33;41.41
59545;BME280;45368;55.002;-1.592;2022-08-19T07:43:47;100333.39;;;18.47;40.35
59545;BME280;45368;55.002;-1.592;2022-08-19T07:46:14;100329.92;;;19.67;38.74
59545;BME280;45368;55.002;-1.592;2022-08-19T07:48:43;100329.64;;;20.26;37.82
59545;BME280;45368;55.002;-1.592;2022-08-19T07:51:14;100327.73;;;20.51;36.89
59545;BME280;45368;55.002;-1.592;2022-08-19T07:53:42;100321.65;;;22.04;34.59
59545;BME280;45368;55.002;-1.592;2022-08-19T07:56:11;100330.57;;;21.82;34.56
59545;BME280;45368;55.002;-1.592;2022-08-19T07:58:40;100330.71;;;22.29;33.10
59545;BME280;45368;55.002;-1.592;2022-08-19T08:01:11;100328.18;;;22.15;33.08
59545;BME280;45368;55.002;-1.592;2022-08-19T08:03:39;100326.38;;;22.33;32.57
59545;BME280;45368;55.002;-1.592;2022-08-19T08:06:06;100326.44;;;22.38;32.69
59545;BME280;45368;55.002;-1.592;2022-08-19T08:08:34;100326.66;;;22.61;32.47
59545;BME280;45368;55.002;-1.592;2022-08-19T08:11:02;100325.34;;;25.19;29.67
59545;BME280;45368;55.002;-1.592;2022-08-19T08:13:29;100325.13;;;26.06;28.17
59545;BME280;45368;55.002;-1.592;2022-08-19T08:15:57;100335.37;;;24.60;29.17
59545;BME280;45368;55.002;-1.592;2022-08-19T08:18:25;100337.55;;;23.67;30.26
59545;BME280;45368;55.002;-1.592;2022-08-19T08:20:52;100332.66;;;23.78;30.83
59545;BME280;45368;55.002;-1.592;2022-08-19T08:23:20;100332.60;;;25.17;29.18
59545;BME280;45368;55.002;-1.592;2022-08-19T08:25:48;100325.06;;;26.88;26.63
59545;BME280;45368;55.002;-1.592;2022-08-19T08:28:16;100335.08;;;25.86;27.61
59545;BME280;45368;55.002;-1.592;2022-08-19T08:30:44;100337.87;;;25.84;27.19
59545;BME280;45368;55.002;-1.592;2022-08-19T08:33:12;100343.73;;;25.31;28.76
59545;BME280;45368;55.002;-1.592;2022-08-19T08:35:40;100345.65;;;22.77;31.18
59545;BME280;45368;55.002;-1.592;2022-08-19T08:38:08;100341.97;;;23.29;30.75
59545;BME280;45368;55.002;-1.592;2022-08-19T08:40:44;100338.63;;;23.98;30.80
59545;BME280;45368;55.002;-1.592;2022-08-19T08:43:21;100338.59;;;23.12;31.89
59545;BME280;45368;55.002;-1.592;2022-08-19T08:45:55;100346.14;;;22.51;32.54
59545;BME280;45368;55.002;-1.592;2022-08-19T08:48:31;100348.36;;;21.28;34.45
59545;BME280;45368;55.002;-1.592;2022-08-19T08:51:03;100348.78;;;19.94;36.72
59545;BME280;45368;55.002;-1.592;2022-08-19T08:53:32;100344.91;;;20.44;36.68
59545;BME280;45368;55.002;-1.592;2022-08-19T08:56:03;100343.17;;;20.86;36.35
59545;BME280;45368;55.002;-1.592;2022-08-19T08:58:39;100347.68;;;20.46;36.90
59545;BME280;45368;55.002;-1.592;2022-08-19T09:01:10;100350.22;;;19.61;38.44
59545;BME280;45368;55.002;-1.592;2022-08-19T09:03:39;100353.24;;;18.74;40.08
59545;BME280;45368;55.002;-1.592;2022-08-19T09:06:14;100358.68;;;19.00;40.14
59545;BME280;45368;55.002;-1.592;2022-08-19T09:09:00;100362.07;;;18.73;40.02
59545;BME280;45368;55.002;-1.592;2022-08-19T09:11:40;100364.87;;;18.98;39.95
59545;BME280;45368;55.002;-1.592;2022-08-19T09:14:18;100365.67;;;19.10;39.86
59545;BME280;45368;55.002;-1.592;2022-08-19T09:16:48;100366.31;;;19.25;39.37
59545;BME280;45368;55.002;-1.592;2022-08-19T09:19:15;100364.55;;;19.51;38.90
59545;BME280;45368;55.002;-1.592;2022-08-19T09:21:42;100362.02;;;18.75;40.38
59545;BME280;45368;55.002;-1.592;2022-08-19T09:24:10;100367.48;;;18.50;40.50
59545;BME280;45368;55.002;-1.592;2022-08-19T09:26:37;100367.90;;;18.65;40.22
59545;BME280;45368;55.002;-1.592;2022-08-19T09:29:04;100364.59;;;19.31;39.23
59545;BME280;45368;55.002;-1.592;2022-08-19T09:31:32;100362.20;;;18.95;39.85
59545;BME280;45368;55.002;-1.592;2022-08-19T09:33:59;100360.75;;;19.23;39.66
59545;BME280;45368;55.002;-1.592;2022-08-19T09:36:28;100357.98;;;19.34;38.73
59545;BME280;45368;55.002;-1.592;2022-08-19T09:38:55;100350.50;;;19.29;39.22
59545;BME280;45368;55.002;-1.592;2022-08-19T09:41:24;100344.36;;;19.93;38.13
59545;BME280;45368;55.002;-1.592;2022-08-19T09:43:53;100348.46;;;19.40;38.45
59545;BME280;45368;55.002;-1.592;2022-08-19T09:46:22;100347.54;;;18.96;39.12
59545;BME280;45368;55.002;-1.592;2022-08-19T09:48:50;100347.49;;;19.00;39.01
59545;BME280;45368;55.002;-1.592;2022-08-19T09:51:19;100356.36;;;19.25;38.08
59545;BME280;45368;55.002;-1.592;2022-08-19T09:53:48;100358.63;;;20.22;37.31
59545;BME280;45368;55.002;-1.592;2022-08-19T09:56:16;100359.28;;;20.23;37.14
59545;BME280;45368;55.002;-1.592;2022-08-19T09:58:44;100361.45;;;19.94;36.73
59545;BME280;45368;55.002;-1.592;2022-08-19T10:01:17;100360.85;;;19.05;37.05
59545;BME280;45368;55.002;-1.592;2022-08-19T10:03:48;100364.51;;;18.41;37.78
59545;BME280;45368;55.002;-1.592;2022-08-19T10:06:16;100359.15;;;18.86;37.12
59545;BME280;45368;55.002;-1.592;2022-08-19T10:08:45;100360.41;;;18.54;38.27
59545;BME280;45368;55.002;-1.592;2022-08-19T10:11:13;100355.71;;;19.39;38.41
59545;BME280;45368;55.002;-1.592;2022-08-19T10:13:40;100364.70;;;19.00;39.05
59545;BME280;45368;55.002;-1.592;2022-08-19T10:16:10;100358.23;;;18.75;38.58
59545;BME280;45368;55.002;-1.592;2022-08-19T10:18:38;100356.00;;;19.17;37.51
59545;BME280;45368;55.002;-1.592;2022-08-19T10:21:07;100361.38;;;18.67;38.27
59545;BME280;45368;55.002;-1.592;2022-08-19T10:23:36;100359.51;;;18.91;38.43
59545;BME280;45368;55.002;-1.592;2022-08-19T10:26:04;100356.04;;;19.67;37.23
59545;BME280;45368;55.002;-1.592;2022-08-19T10:28:32;100351.33;;;19.48;37.38
59545;BME280;45368;55.002;-1.592;2022-08-19T10:31:03;100349.25;;;19.85;36.72
59545;BME280;45368;55.002;-1.592;2022-08-19T10:33:30;100349.84;;;19.59;37.05
59545;BME280;45368;55.002;-1.592;2022-08-19T10:35:59;100350.45;;;19.49;36.40
59545;BME280;45368;55.002;-1.592;2022-08-19T10:38:27;100339.78;;;19.75;34.74
59545;BME280;45368;55.002;-1.592;2022-08-19T10:40:54;100336.84;;;19.77;36.13
59545;BME280;45368;55.002;-1.592;2022-08-19T10:43:22;100340.45;;;20.39;35.64
59545;BME280;45368;55.002;-1.592;2022-08-19T10:45:52;100344.80;;;20.15;34.90
59545;BME280;45368;55.002;-1.592;2022-08-19T10:48:20;100345.47;;;19.24;35.90
59545;BME280;45368;55.002;-1.592;2022-08-19T10:50:47;100353.79;;;19.82;35.30
59545;BME280;45368;55.002;-1.592;2022-08-19T10:53:15;100352.64;;;19.40;36.44
59545;BME280;45368;55.002;-1.592;2022-08-19T10:55:44;100348.14;;;19.12;36.89
59545;BME280;45368;55.002;-1.592;2022-08-19T10:58:14;100349.57;;;18.95;37.00
59545;BME280;45368;55.002;-1.592;2022-08-19T11:00:41;100343.25;;;19.83;35.08
59545;BME280;45368;55.002;-1.592;2022-08-19T11:03:09;100349.83;;;20.15;35.28
59545;BME280;45368;55.002;-1.592;2022-08-19T11:05:37;100350.42;;;19.87;35.70
59545;BME280;45368;55.002;-1.592;2022-08-19T11:08:04;100346.96;;;19.95;36.22
59545;BME280;45368;55.002;-1.592;2022-08-19T11:10:31;100350.61;;;19.45;34.87
59545;BME280;45368;55.002;-1.592;2022-08-19T11:12:59;100356.09;;;20.09;34.09
59545;BME280;45368;55.002;-1.592;2022-08-19T11:15:26;100350.66;;;20.38;33.77
59545;BME280;45368;55.002;-1.592;2022-08-19T11:17:54;100357.08;;;19.63;34.28
59545;BME280;45368;55.002;-1.592;2022-08-19T11:20:22;100358.88;;;19.98;34.05
59545;BME280;45368;55.002;-1.592;2022-08-19T11:22:51;100359.53;;;20.45;32.89
59545;BME280;45368;55.002;-1.592;2022-08-19T11:25:19;100355.38;;;21.32;32.14
59545;BME280;45368;55.002;-1.592;2022-08-19T11:27:46;100348.02;;;21.80;31.23
59545;BME280;45368;55.002;-1.592;2022-08-19T11:30:14;100347.02;;;21.32;32.07
59545;BME280;45368;55.002;-1.592;2022-08-19T11:32:42;100338.63;;;22.68;30.63
59545;BME280;45368;55.002;-1.592;2022-08-19T11:35:09;100335.00;;;22.84;29.97
59545;BME280;45368;55.002;-1.592;2022-08-19T11:37:37;100340.47;;;21.74;31.02
59545;BME280;45368;55.002;-1.592;2022-08-19T11:40:07;100336.39;;;21.08;32.50
59545;BME280;45368;55.002;-1.592;2022-08-19T11:42:35;100347.37;;;20.61;34.27
59545;BME280;45368;55.002;-1.592;2022-08-19T11:45:03;100335.98;;;21.46;32.66
59545;BME280;45368;55.002;-1.592;2022-08-19T11:47:30;100330.39;;;21.30;32.40
59545;BME280;45368;55.002;-1.592;2022-08-19T11:49:57;100329.98;;;22.87;32.52
59545;BME280;45368;55.002;-1.592;2022-08-19T11:52:25;100325.84;;;22.05;32.49
59545;BME280;45368;55.002;-1.592;2022-08-19T11:54:53;100326.18;;;21.60;32.64
59545;BME280;45368;55.002;-1.592;2022-08-19T11:57:20;100329.27;;;22.36;31.24
59545;BME280;45368;55.002;-1.592;2022-08-19T12:00:13;100334.51;;;22.89;31.54
59545;BME280;45368;55.002;-1.592;2022-08-19T12:02:41;100340.74;;;21.86;31.46
59545;BME280;45368;55.002;-1.592;2022-08-19T12:05:08;100346.64;;;21.16;32.62
59545;BME280;45368;55.002;-1.592;2022-08-19T12:07:36;100340.21;;;21.06;32.43
59545;BME280;45368;55.002;-1.592;2022-08-19T12:10:04;100346.80;;;20.51;33.79
59545;BME280;45368;55.002;-1.592;2022-08-19T12:12:31;100336.30;;;21.02;33.70
59545;BME280;45368;55.002;-1.592;2022-08-19T12:14:58;100338.04;;;20.94;33.79
59545;BME280;45368;55.002;-1.592;2022-08-19T12:17:26;100339.92;;;21.08;34.21
59545;BME280;45368;55.002;-1.592;2022-08-19T12:19:55;100332.58;;;21.58;34.36
59545;BME280;45368;55.002;-1.592;2022-08-19T12:22:24;100345.18;;;21.23;34.35
59545;BME280;45368;55.002;-1.592;2022-08-19T12:24:51;100348.78;;;21.10;34.31
59545;BME280;45368;55.002;-1.592;2022-08-19T12:27:19;100345.54;;;21.25;34.35
59545;BME280;45368;55.002;-1.592;2022-08-19T12:29:46;100338.67;;;21.89;33.84
59545;BME280;45368;55.002;-1.592;2022-08-19T12:32:15;100338.71;;;21.56;33.57
59545;BME280;45368;55.002;-1.592;2022-08-19T12:34:42;100341.64;;;21.34;33.69
59545;BME280;45368;55.002;-1.592;2022-08-19T12:37:10;100337.92;;;21.32;34.66
59545;BME280;45368;55.002;-1.592;2022-08-19T12:39:39;100327.99;;;21.79;32.83
59545;BME280;45368;55.002;-1.592;2022-08-19T12:42:07;100334.07;;;20.88;33.80
59545;BME280;45368;55.002;-1.592;2022-08-19T12:44:34;100337.46;;;19.94;35.77
59545;BME280;45368;55.002;-1.592;2022-08-19T12:47:02;100346.30;;;19.59;35.78